sensor_id;sensor_type;location;lat;lon;timestamp;P1;durP1;ratioP1;P2;durP2;ratioP2
67053;SDS011;53960;51.826;5.850;2022-09-03T00:02:36;7.20;;;1.95;;
67053;SDS011;53960;51.826;5.850;2022-09-03T00:10:56;9.65;;;1.80;;
67053;SDS011;53960;51.826;5.850;2022-09-03T00:13:30;7.75;;;1.80;;
67053;SDS011;53960;51.826;5.850;2022-09-03T00:15:59;5.80;;;1.83;;
67053;SDS011;53960;51.826;5.850;2022-09-03T00:18:27;7.20;;;1.77;;
67053;SDS011;53960;51.826;5.850;2022-09-03T00:20:58;7.85;;;1.70;;
67053;SDS011;53960;51.826;5.850;2022-09-03T00:23:32;6.53;;;1.60;;
67053;SDS011;53960;51.826;5.850;2022-09-03T00:26:13;6.65;;;1.75;;
67053;SDS011;53960;51.826;5.850;2022-09-03T00:28:49;5.13;;;1.58;;
67053;SDS011;53960;51.826;5.850;2022-09-03T00:31:24;6.63;;;1.70;;
67053;SDS011;53960;51.826;5.850;2022-09-03T00:33:55;8.65;;;1.90;;
67053;SDS011;53960;51.826;5.850;2022-09-03T00:36:27;6.53;;;1.90;;
67053;SDS011;53960;51.826;5.850;2022-09-03T00:38:59;6.28;;;1.90;;
67053;SDS011;53960;51.826;5.850;2022-09-03T00:41:37;6.57;;;2.00;;
67053;SDS011;53960;51.826;5.850;2022-09-03T01:00:56;6.75;;;1.70;;
67053;SDS011;53960;51.826;5.850;2022-09-03T01:03:29;7.87;;;2.00;;
67053;SDS011;53960;51.826;5.850;2022-09-03T01:08:50;6.40;;;1.57;;
67053;SDS011;53960;51.826;5.850;2022-09-03T01:17:05;6.80;;;2.08;;
67053;SDS011;53960;51.826;5.850;2022-09-03T01:28:22;7.07;;;1.95;;
67053;SDS011;53960;51.826;5.850;2022-09-03T01:30:58;5.68;;;1.70;;
67053;SDS011;53960;51.826;5.850;2022-09-03T01:36:26;6.83;;;2.00;;
67053;SDS011;53960;51.826;5.850;2022-09-03T01:39:02;7.13;;;1.88;;
67053;SDS011;53960;51.826;5.850;2022-09-03T01:41:43;6.47;;;1.65;;
67053;SDS011;53960;51.826;5.850;2022-09-03T01:44:36;6.05;;;1.70;;
67053;SDS011;53960;51.826;5.850;2022-09-03T01:47:17;6.93;;;1.90;;
67053;SDS011;53960;51.826;5.850;2022-09-03T01:52:45;6.97;;;1.90;;
67053;SDS011;53960;51.826;5.850;2022-09-03T01:58:10;5.85;;;1.70;;
67053;SDS011;53960;51.826;5.850;2022-09-03T02:00:40;7.03;;;1.98;;
67053;SDS011;53960;51.826;5.850;2022-09-03T02:03:07;6.50;;;1.80;;
67053;SDS011;53960;51.826;5.850;2022-09-03T02:05:36;7.70;;;2.60;;
67053;SDS011;53960;51.826;5.850;2022-09-03T02:08:04;7.13;;;1.90;;
67053;SDS011;53960;51.826;5.850;2022-09-03T02:13:19;7.43;;;1.90;;
67053;SDS011;53960;51.826;5.850;2022-09-03T02:15:58;8.03;;;1.80;;
67053;SDS011;53960;51.826;5.850;2022-09-03T02:18:30;7.43;;;1.70;;
67053;SDS011;53960;51.826;5.850;2022-09-03T02:21:00;6.13;;;1.70;;
67053;SDS011;53960;51.826;5.850;2022-09-03T02:23:26;7.73;;;1.70;;
67053;SDS011;53960;51.826;5.850;2022-09-03T02:25:54;6.25;;;1.80;;
67053;SDS011;53960;51.826;5.850;2022-09-03T02:28:22;8.90;;;1.80;;
67053;SDS011;53960;51.826;5.850;2022-09-03T02:30:48;5.80;;;1.73;;
67053;SDS011;53960;51.826;5.850;2022-09-03T02:33:13;5.73;;;1.73;;
67053;SDS011;53960;51.826;5.850;2022-09-03T02:35:40;6.88;;;2.03;;
67053;SDS011;53960;51.826;5.850;2022-09-03T02:38:10;6.35;;;2.00;;
67053;SDS011;53960;51.826;5.850;2022-09-03T02:40:37;5.63;;;1.70;;
67053;SDS011;53960;51.826;5.850;2022-09-03T02:43:03;7.00;;;1.90;;
67053;SDS011;53960;51.826;5.850;2022-09-03T02:45:33;8.32;;;2.00;;
67053;SDS011;53960;51.826;5.850;2022-09-03T02:48:01;5.75;;;1.70;;
67053;SDS011;53960;51.826;5.850;2022-09-03T02:50:27;7.85;;;1.60;;
67053;SDS011;53960;51.826;5.850;2022-09-03T02:52:53;6.53;;;1.90;;
67053;SDS011;53960;51.826;5.850;2022-09-03T02:55:18;7.57;;;1.63;;
67053;SDS011;53960;51.826;5.850;2022-09-03T02:57:44;6.20;;;1.70;;
67053;SDS011;53960;51.826;5.850;2022-09-03T03:00:10;6.87;;;2.00;;
67053;SDS011;53960;51.826;5.850;2022-09-03T03:02:35;7.53;;;1.90;;
67053;SDS011;53960;51.826;5.850;2022-09-03T03:05:01;5.33;;;1.60;;
67053;SDS011;53960;51.826;5.850;2022-09-03T03:07:30;6.70;;;2.00;;
67053;SDS011;53960;51.826;5.850;2022-09-03T03:09:59;5.50;;;1.50;;
67053;SDS011;53960;51.826;5.850;2022-09-03T03:12:24;5.53;;;1.70;;
67053;SDS011;53960;51.826;5.850;2022-09-03T03:14:50;8.13;;;2.30;;
67053;SDS011;53960;51.826;5.850;2022-09-03T03:17:15;6.80;;;1.70;;
67053;SDS011;53960;51.826;5.850;2022-09-03T03:19:40;7.80;;;1.80;;
67053;SDS011;53960;51.826;5.850;2022-09-03T03:22:06;6.90;;;1.83;;
67053;SDS011;53960;51.826;5.850;2022-09-03T03:24:31;6.93;;;1.80;;
67053;SDS011;53960;51.826;5.850;2022-09-03T03:26:57;5.80;;;1.60;;
67053;SDS011;53960;51.826;5.850;2022-09-03T03:29:23;6.10;;;1.90;;
67053;SDS011;53960;51.826;5.850;2022-09-03T03:31:49;7.07;;;1.63;;
67053;SDS011;53960;51.826;5.850;2022-09-03T03:34:14;7.30;;;1.50;;
67053;SDS011;53960;51.826;5.850;2022-09-03T03:36:40;7.07;;;1.90;;
67053;SDS011;53960;51.826;5.850;2022-09-03T03:39:05;6.47;;;1.80;;
67053;SDS011;53960;51.826;5.850;2022-09-03T03:41:31;6.33;;;1.80;;
67053;SDS011;53960;51.826;5.850;2022-09-03T03:43:58;6.88;;;1.60;;
67053;SDS011;53960;51.826;5.850;2022-09-03T03:46:29;5.18;;;1.60;;
67053;SDS011;53960;51.826;5.850;2022-09-03T03:48:57;6.72;;;1.67;;
67053;SDS011;53960;51.826;5.850;2022-09-03T03:51:23;6.50;;;2.10;;
67053;SDS011;53960;51.826;5.850;2022-09-03T03:53:52;5.80;;;1.77;;
67053;SDS011;53960;51.826;5.850;2022-09-03T03:56:19;7.00;;;1.90;;
67053;SDS011;53960;51.826;5.850;2022-09-03T03:58:44;6.83;;;2.00;;
67053;SDS011;53960;51.826;5.850;2022-09-03T04:01:11;6.10;;;1.77;;
67053;SDS011;53960;51.826;5.850;2022-09-03T04:03:38;6.75;;;1.80;;
67053;SDS011;53960;51.826;5.850;2022-09-03T04:06:04;8.37;;;1.77;;
67053;SDS011;53960;51.826;5.850;2022-09-03T04:08:32;5.72;;;1.65;;
67053;SDS011;53960;51.826;5.850;2022-09-03T04:11:00;7.53;;;1.90;;
67053;SDS011;53960;51.826;5.850;2022-09-03T04:13:33;6.35;;;1.77;;
67053;SDS011;53960;51.826;5.850;2022-09-03T04:16:00;8.50;;;1.90;;
67053;SDS011;53960;51.826;5.850;2022-09-03T04:18:28;5.87;;;1.70;;
67053;SDS011;53960;51.826;5.850;2022-09-03T04:20:58;5.47;;;1.70;;
67053;SDS011;53960;51.826;5.850;2022-09-03T04:23:28;7.28;;;1.90;;
67053;SDS011;53960;51.826;5.850;2022-09-03T04:25:57;5.60;;;1.70;;
67053;SDS011;53960;51.826;5.850;2022-09-03T04:28:22;5.77;;;1.63;;
67053;SDS011;53960;51.826;5.850;2022-09-03T04:30:47;6.90;;;1.87;;
67053;SDS011;53960;51.826;5.850;2022-09-03T04:33:13;5.60;;;1.50;;
67053;SDS011;53960;51.826;5.850;2022-09-03T04:35:38;7.07;;;1.70;;
67053;SDS011;53960;51.826;5.850;2022-09-03T04:38:05;6.37;;;1.73;;
67053;SDS011;53960;51.826;5.850;2022-09-03T04:40:30;6.78;;;1.70;;
67053;SDS011;53960;51.826;5.850;2022-09-03T04:42:56;6.87;;;1.70;;
67053;SDS011;53960;51.826;5.850;2022-09-03T04:45:23;5.73;;;1.50;;
67053;SDS011;53960;51.826;5.850;2022-09-03T04:47:55;13.25;;;2.10;;
67053;SDS011;53960;51.826;5.850;2022-09-03T04:50:21;7.03;;;1.80;;
67053;SDS011;53960;51.826;5.850;2022-09-03T04:52:47;5.65;;;1.67;;
67053;SDS011;53960;51.826;5.850;2022-09-03T04:55:12;6.63;;;1.70;;
67053;SDS011;53960;51.826;5.850;2022-09-03T04:57:38;5.80;;;1.50;;
67053;SDS011;53960;51.826;5.850;2022-09-03T05:00:03;5.37;;;1.60;;
67053;SDS011;53960;51.826;5.850;2022-09-03T05:02:30;6.80;;;1.65;;
67053;SDS011;53960;51.826;5.850;2022-09-03T05:04:55;6.60;;;1.63;;
67053;SDS011;53960;51.826;5.850;2022-09-03T05:07:20;7.63;;;2.23;;
67053;SDS011;53960;51.826;5.850;2022-09-03T05:09:46;7.00;;;1.93;;
67053;SDS011;53960;51.826;5.850;2022-09-03T05:12:11;6.82;;;2.10;;
67053;SDS011;53960;51.826;5.850;2022-09-03T05:14:37;7.03;;;1.80;;
67053;SDS011;53960;51.826;5.850;2022-09-03T05:17:02;6.13;;;1.58;;
67053;SDS011;53960;51.826;5.850;2022-09-03T05:19:28;5.73;;;1.50;;
67053;SDS011;53960;51.826;5.850;2022-09-03T05:21:53;6.10;;;1.57;;
67053;SDS011;53960;51.826;5.850;2022-09-03T05:24:18;5.87;;;1.60;;
67053;SDS011;53960;51.826;5.850;2022-09-03T05:26:44;7.33;;;1.77;;
67053;SDS011;53960;51.826;5.850;2022-09-03T05:29:09;6.10;;;1.70;;
67053;SDS011;53960;51.826;5.850;2022-09-03T05:31:35;5.80;;;1.50;;
67053;SDS011;53960;51.826;5.850;2022-09-03T05:34:03;6.20;;;1.77;;
67053;SDS011;53960;51.826;5.850;2022-09-03T05:36:32;6.28;;;1.98;;
67053;SDS011;53960;51.826;5.850;2022-09-03T05:38:59;5.82;;;1.67;;
67053;SDS011;53960;51.826;5.850;2022-09-03T05:41:25;5.63;;;1.60;;
67053;SDS011;53960;51.826;5.850;2022-09-03T05:43:51;5.93;;;1.70;;
67053;SDS011;53960;51.826;5.850;2022-09-03T05:46:22;6.18;;;1.90;;
67053;SDS011;53960;51.826;5.850;2022-09-03T05:48:55;5.85;;;1.77;;
67053;SDS011;53960;51.826;5.850;2022-09-03T05:51:29;5.70;;;1.80;;
67053;SDS011;53960;51.826;5.850;2022-09-03T05:53:54;6.87;;;1.80;;
67053;SDS011;53960;51.826;5.850;2022-09-03T05:56:21;6.43;;;1.50;;
67053;SDS011;53960;51.826;5.850;2022-09-03T05:58:51;5.73;;;1.70;;
67053;SDS011;53960;51.826;5.850;2022-09-03T06:01:25;7.22;;;1.67;;
67053;SDS011;53960;51.826;5.850;2022-09-03T06:04:05;6.40;;;1.80;;
67053;SDS011;53960;51.826;5.850;2022-09-03T06:06:33;7.15;;;1.70;;
67053;SDS011;53960;51.826;5.850;2022-09-03T06:09:02;5.65;;;1.65;;
67053;SDS011;53960;51.826;5.850;2022-09-03T06:11:29;5.57;;;1.70;;
67053;SDS011;53960;51.826;5.850;2022-09-03T06:13:59;6.50;;;1.80;;
67053;SDS011;53960;51.826;5.850;2022-09-03T06:16:26;6.30;;;1.88;;
67053;SDS011;53960;51.826;5.850;2022-09-03T06:18:52;5.57;;;1.50;;
67053;SDS011;53960;51.826;5.850;2022-09-03T06:21:18;5.93;;;1.60;;
67053;SDS011;53960;51.826;5.850;2022-09-03T06:23:47;5.83;;;1.53;;
67053;SDS011;53960;51.826;5.850;2022-09-03T06:26:16;5.90;;;1.60;;
67053;SDS011;53960;51.826;5.850;2022-09-03T06:28:43;6.65;;;1.70;;
67053;SDS011;53960;51.826;5.850;2022-09-03T06:31:10;8.27;;;1.87;;
67053;SDS011;53960;51.826;5.850;2022-09-03T06:33:38;5.22;;;1.58;;
67053;SDS011;53960;51.826;5.850;2022-09-03T06:36:05;6.05;;;1.50;;
67053;SDS011;53960;51.826;5.850;2022-09-03T06:38:32;5.38;;;1.80;;
67053;SDS011;53960;51.826;5.850;2022-09-03T06:41:02;6.97;;;1.60;;
67053;SDS011;53960;51.826;5.850;2022-09-03T06:43:31;8.00;;;1.60;;
67053;SDS011;53960;51.826;5.850;2022-09-03T06:45:59;6.35;;;1.73;;
67053;SDS011;53960;51.826;5.850;2022-09-03T06:48:26;7.10;;;1.60;;
67053;SDS011;53960;51.826;5.850;2022-09-03T06:50:55;5.55;;;1.50;;
67053;SDS011;53960;51.826;5.850;2022-09-03T06:53:23;6.38;;;1.60;;
67053;SDS011;53960;51.826;5.850;2022-09-03T06:55:51;8.30;;;1.60;;
67053;SDS011;53960;51.826;5.850;2022-09-03T06:58:21;7.25;;;1.50;;
67053;SDS011;53960;51.826;5.850;2022-09-03T07:00:47;6.55;;;1.63;;
67053;SDS011;53960;51.826;5.850;2022-09-03T07:03:13;8.35;;;1.50;;
67053;SDS011;53960;51.826;5.850;2022-09-03T07:05:40;5.70;;;1.70;;
67053;SDS011;53960;51.826;5.850;2022-09-03T07:08:07;6.07;;;1.40;;
67053;SDS011;53960;51.826;5.850;2022-09-03T07:10:35;7.03;;;1.60;;
67053;SDS011;53960;51.826;5.850;2022-09-03T07:13:01;6.88;;;1.75;;
67053;SDS011;53960;51.826;5.850;2022-09-03T07:15:26;5.77;;;1.57;;
67053;SDS011;53960;51.826;5.850;2022-09-03T07:17:52;6.80;;;1.40;;
67053;SDS011;53960;51.826;5.850;2022-09-03T07:20:17;5.93;;;1.40;;
67053;SDS011;53960;51.826;5.850;2022-09-03T07:22:44;6.75;;;1.60;;
67053;SDS011;53960;51.826;5.850;2022-09-03T07:25:09;5.90;;;1.57;;
67053;SDS011;53960;51.826;5.850;2022-09-03T07:27:35;5.90;;;1.70;;
67053;SDS011;53960;51.826;5.850;2022-09-03T07:30:00;6.90;;;1.70;;
67053;SDS011;53960;51.826;5.850;2022-09-03T07:32:27;5.00;;;1.50;;
67053;SDS011;53960;51.826;5.850;2022-09-03T07:34:52;7.33;;;1.70;;
67053;SDS011;53960;51.826;5.850;2022-09-03T07:37:18;6.60;;;1.55;;
67053;SDS011;53960;51.826;5.850;2022-09-03T07:39:43;7.47;;;1.77;;
67053;SDS011;53960;51.826;5.850;2022-09-03T07:42:08;4.83;;;1.40;;
67053;SDS011;53960;51.826;5.850;2022-09-03T07:44:35;7.43;;;1.92;;
67053;SDS011;53960;51.826;5.850;2022-09-03T07:47:00;7.53;;;1.80;;
67053;SDS011;53960;51.826;5.850;2022-09-03T07:49:25;5.27;;;1.53;;
67053;SDS011;53960;51.826;5.850;2022-09-03T07:51:50;6.53;;;1.60;;
67053;SDS011;53960;51.826;5.850;2022-09-03T07:54:18;6.55;;;1.60;;
67053;SDS011;53960;51.826;5.850;2022-09-03T07:56:45;6.22;;;1.60;;
67053;SDS011;53960;51.826;5.850;2022-09-03T07:59:11;8.70;;;1.77;;
67053;SDS011;53960;51.826;5.850;2022-09-03T08:01:36;6.20;;;1.67;;
67053;SDS011;53960;51.826;5.850;2022-09-03T08:04:02;5.63;;;1.67;;
67053;SDS011;53960;51.826;5.850;2022-09-03T08:06:29;7.32;;;1.88;;
67053;SDS011;53960;51.826;5.850;2022-09-03T08:08:59;9.35;;;1.58;;
67053;SDS011;53960;51.826;5.850;2022-09-03T08:11:28;7.00;;;1.70;;
67053;SDS011;53960;51.826;5.850;2022-09-03T08:13:56;6.85;;;1.60;;
67053;SDS011;53960;51.826;5.850;2022-09-03T08:16:28;8.40;;;1.60;;
67053;SDS011;53960;51.826;5.850;2022-09-03T08:18:54;6.22;;;1.52;;
67053;SDS011;53960;51.826;5.850;2022-09-03T08:21:20;6.73;;;1.97;;
67053;SDS011;53960;51.826;5.850;2022-09-03T08:23:47;7.40;;;1.45;;
67053;SDS011;53960;51.826;5.850;2022-09-03T08:26:14;5.85;;;1.48;;
67053;SDS011;53960;51.826;5.850;2022-09-03T08:28:40;5.85;;;1.58;;
67053;SDS011;53960;51.826;5.850;2022-09-03T08:31:07;10.10;;;1.70;;
67053;SDS011;53960;51.826;5.850;2022-09-03T08:33:37;8.48;;;1.20;;
67053;SDS011;53960;51.826;5.850;2022-09-03T08:36:07;12.48;;;1.63;;
67053;SDS011;53960;51.826;5.850;2022-09-03T08:38:37;6.75;;;1.40;;
67053;SDS011;53960;51.826;5.850;2022-09-03T08:54:50;6.15;;;1.38;;
67053;SDS011;53960;51.826;5.850;2022-09-03T08:57:19;5.60;;;1.30;;
67053;SDS011;53960;51.826;5.850;2022-09-03T08:59:46;5.35;;;1.45;;
67053;SDS011;53960;51.826;5.850;2022-09-03T09:02:19;5.55;;;1.33;;
67053;SDS011;53960;51.826;5.850;2022-09-03T09:05:16;8.18;;;1.60;;
67053;SDS011;53960;51.826;5.850;2022-09-03T09:10:46;5.47;;;1.33;;
67053;SDS011;53960;51.826;5.850;2022-09-03T09:16:22;6.30;;;1.40;;
67053;SDS011;53960;51.826;5.850;2022-09-03T09:21:41;6.70;;;1.30;;
67053;SDS011;53960;51.826;5.850;2022-09-03T09:24:20;7.03;;;1.47;;
67053;SDS011;53960;51.826;5.850;2022-09-03T09:26:48;5.53;;;1.35;;
67053;SDS011;53960;51.826;5.850;2022-09-03T09:29:18;7.53;;;1.60;;
67053;SDS011;53960;51.826;5.850;2022-09-03T09:31:43;5.87;;;1.30;;
67053;SDS011;53960;51.826;5.850;2022-09-03T09:34:09;6.33;;;1.43;;
67053;SDS011;53960;51.826;5.850;2022-09-03T09:36:42;6.88;;;1.70;;
67053;SDS011;53960;51.826;5.850;2022-09-03T09:39:12;7.53;;;1.83;;
67053;SDS011;53960;51.826;5.850;2022-09-03T09:41:39;6.22;;;1.65;;
67053;SDS011;53960;51.826;5.850;2022-09-03T09:44:05;5.70;;;1.43;;
67053;SDS011;53960;51.826;5.850;2022-09-03T09:46:34;5.97;;;1.70;;
67053;SDS011;53960;51.826;5.850;2022-09-03T09:49:02;7.88;;;1.70;;
67053;SDS011;53960;51.826;5.850;2022-09-03T09:51:42;6.90;;;1.50;;
67053;SDS011;53960;51.826;5.850;2022-09-03T09:56:44;6.20;;;1.40;;
67053;SDS011;53960;51.826;5.850;2022-09-03T09:59:11;6.22;;;1.50;;
67053;SDS011;53960;51.826;5.850;2022-09-03T10:01:39;7.90;;;1.60;;
67053;SDS011;53960;51.826;5.850;2022-09-03T10:04:07;6.63;;;1.70;;
67053;SDS011;53960;51.826;5.850;2022-09-03T10:06:38;7.55;;;1.52;;
67053;SDS011;53960;51.826;5.850;2022-09-03T10:09:29;8.85;;;1.60;;
67053;SDS011;53960;51.826;5.850;2022-09-03T10:12:03;7.57;;;1.70;;
67053;SDS011;53960;51.826;5.850;2022-09-03T10:14:56;6.07;;;1.42;;
67053;SDS011;53960;51.826;5.850;2022-09-03T10:20:37;8.75;;;1.75;;
67053;SDS011;53960;51.826;5.850;2022-09-03T10:23:20;7.60;;;1.60;;
67053;SDS011;53960;51.826;5.850;2022-09-03T10:25:56;6.90;;;1.52;;
67053;SDS011;53960;51.826;5.850;2022-09-03T10:28:31;6.35;;;1.42;;
67053;SDS011;53960;51.826;5.850;2022-09-03T10:34:28;10.10;;;1.92;;
67053;SDS011;53960;51.826;5.850;2022-09-03T10:37:22;6.45;;;1.65;;
67053;SDS011;53960;51.826;5.850;2022-09-03T10:40:01;6.65;;;1.80;;
67053;SDS011;53960;51.826;5.850;2022-09-03T10:48:29;7.88;;;1.80;;
67053;SDS011;53960;51.826;5.850;2022-09-03T10:51:26;9.02;;;1.90;;
67053;SDS011;53960;51.826;5.850;2022-09-03T10:56:46;7.13;;;1.80;;
67053;SDS011;53960;51.826;5.850;2022-09-03T11:02:14;6.97;;;1.98;;
67053;SDS011;53960;51.826;5.850;2022-09-03T11:04:59;8.30;;;1.90;;
67053;SDS011;53960;51.826;5.850;2022-09-03T11:10:31;9.40;;;2.00;;
67053;SDS011;53960;51.826;5.850;2022-09-03T11:13:01;6.77;;;1.80;;
67053;SDS011;53960;51.826;5.850;2022-09-03T11:15:34;7.65;;;1.67;;
67053;SDS011;53960;51.826;5.850;2022-09-03T11:18:15;7.68;;;1.70;;
67053;SDS011;53960;51.826;5.850;2022-09-03T11:20:46;8.25;;;1.55;;
67053;SDS011;53960;51.826;5.850;2022-09-03T11:23:14;8.57;;;1.88;;
67053;SDS011;53960;51.826;5.850;2022-09-03T11:25:51;7.50;;;1.70;;
67053;SDS011;53960;51.826;5.850;2022-09-03T11:31:24;6.28;;;2.00;;
67053;SDS011;53960;51.826;5.850;2022-09-03T11:36:37;8.25;;;1.88;;
67053;SDS011;53960;51.826;5.850;2022-09-03T11:39:17;8.57;;;2.27;;
67053;SDS011;53960;51.826;5.850;2022-09-03T11:41:58;6.82;;;1.95;;
67053;SDS011;53960;51.826;5.850;2022-09-03T11:44:38;7.97;;;1.95;;
67053;SDS011;53960;51.826;5.850;2022-09-03T11:49:45;6.60;;;1.97;;
67053;SDS011;53960;51.826;5.850;2022-09-03T11:52:14;10.38;;;2.20;;
67053;SDS011;53960;51.826;5.850;2022-09-03T11:54:50;9.20;;;2.17;;
67053;SDS011;53960;51.826;5.850;2022-09-03T11:57:20;8.70;;;2.30;;
67053;SDS011;53960;51.826;5.850;2022-09-03T11:59:49;7.20;;;2.40;;
67053;SDS011;53960;51.826;5.850;2022-09-03T12:02:25;8.83;;;2.40;;
67053;SDS011;53960;51.826;5.850;2022-09-03T12:10:51;9.65;;;2.38;;
67053;SDS011;53960;51.826;5.850;2022-09-03T12:13:44;9.60;;;2.20;;
67053;SDS011;53960;51.826;5.850;2022-09-03T12:16:29;8.30;;;2.47;;
67053;SDS011;53960;51.826;5.850;2022-09-03T12:19:06;8.85;;;1.98;;
67053;SDS011;53960;51.826;5.850;2022-09-03T12:21:39;7.47;;;2.20;;
67053;SDS011;53960;51.826;5.850;2022-09-03T12:24:05;7.63;;;1.80;;
67053;SDS011;53960;51.826;5.850;2022-09-03T12:26:37;7.50;;;2.20;;
67053;SDS011;53960;51.826;5.850;2022-09-03T12:29:04;7.00;;;2.40;;
67053;SDS011;53960;51.826;5.850;2022-09-03T12:31:31;7.00;;;2.30;;
67053;SDS011;53960;51.826;5.850;2022-09-03T12:34:11;9.77;;;2.10;;
67053;SDS011;53960;51.826;5.850;2022-09-03T12:36:47;6.25;;;1.92;;
67053;SDS011;53960;51.826;5.850;2022-09-03T12:39:16;8.52;;;2.13;;
67053;SDS011;53960;51.826;5.850;2022-09-03T12:44:36;6.60;;;2.10;;
67053;SDS011;53960;51.826;5.850;2022-09-03T12:47:09;7.07;;;1.97;;
67053;SDS011;53960;51.826;5.850;2022-09-03T12:49:41;9.02;;;1.95;;
67053;SDS011;53960;51.826;5.850;2022-09-03T12:52:15;7.15;;;2.00;;
67053;SDS011;53960;51.826;5.850;2022-09-03T12:55:01;8.63;;;2.08;;
67053;SDS011;53960;51.826;5.850;2022-09-03T12:57:34;8.20;;;2.00;;
67053;SDS011;53960;51.826;5.850;2022-09-03T13:00:21;8.63;;;2.20;;
67053;SDS011;53960;51.826;5.850;2022-09-03T13:05:18;7.07;;;2.15;;
67053;SDS011;53960;51.826;5.850;2022-09-03T13:07:50;8.47;;;2.10;;
67053;SDS011;53960;51.826;5.850;2022-09-03T13:10:26;7.00;;;2.00;;
67053;SDS011;53960;51.826;5.850;2022-09-03T13:12:57;7.65;;;2.00;;
67053;SDS011;53960;51.826;5.850;2022-09-03T13:15:25;8.25;;;2.22;;
67053;SDS011;53960;51.826;5.850;2022-09-03T13:17:56;7.22;;;2.30;;
67053;SDS011;53960;51.826;5.850;2022-09-03T13:31:40;6.88;;;2.13;;
67053;SDS011;53960;51.826;5.850;2022-09-03T13:34:29;7.30;;;2.10;;
67053;SDS011;53960;51.826;5.850;2022-09-03T13:39:26;7.50;;;2.08;;
67053;SDS011;53960;51.826;5.850;2022-09-03T13:42:02;7.53;;;2.10;;
67053;SDS011;53960;51.826;5.850;2022-09-03T13:50:40;7.13;;;2.08;;
67053;SDS011;53960;51.826;5.850;2022-09-03T13:53:17;7.55;;;1.98;;
67053;SDS011;53960;51.826;5.850;2022-09-03T13:55:54;8.43;;;2.00;;
67053;SDS011;53960;51.826;5.850;2022-09-03T13:58:42;6.70;;;1.80;;
67053;SDS011;53960;51.826;5.850;2022-09-03T14:01:18;6.53;;;2.10;;
67053;SDS011;53960;51.826;5.850;2022-09-03T14:04:00;9.40;;;5.00;;
67053;SDS011;53960;51.826;5.850;2022-09-03T14:06:38;9.70;;;6.22;;
67053;SDS011;53960;51.826;5.850;2022-09-03T14:14:59;12.25;;;7.05;;
67053;SDS011;53960;51.826;5.850;2022-09-03T14:20:35;8.30;;;1.83;;
67053;SDS011;53960;51.826;5.850;2022-09-03T14:25:53;7.22;;;2.20;;
67053;SDS011;53960;51.826;5.850;2022-09-03T14:28:35;6.13;;;1.80;;
67053;SDS011;53960;51.826;5.850;2022-09-03T14:31:16;8.32;;;2.00;;
67053;SDS011;53960;51.826;5.850;2022-09-03T14:39:27;5.97;;;1.90;;
67053;SDS011;53960;51.826;5.850;2022-09-03T14:42:09;7.13;;;2.15;;
67053;SDS011;53960;51.826;5.850;2022-09-03T14:45:11;6.32;;;1.70;;
67053;SDS011;53960;51.826;5.850;2022-09-03T14:50:18;6.43;;;1.80;;
67053;SDS011;53960;51.826;5.850;2022-09-03T14:52:56;7.27;;;1.90;;
67053;SDS011;53960;51.826;5.850;2022-09-03T14:55:56;6.78;;;1.85;;
67053;SDS011;53960;51.826;5.850;2022-09-03T15:01:12;6.85;;;1.85;;
67053;SDS011;53960;51.826;5.850;2022-09-03T15:09:34;5.95;;;1.80;;
67053;SDS011;53960;51.826;5.850;2022-09-03T15:12:15;5.68;;;1.85;;
67053;SDS011;53960;51.826;5.850;2022-09-03T15:14:54;5.50;;;1.60;;
67053;SDS011;53960;51.826;5.850;2022-09-03T15:21:14;5.20;;;1.60;;
67053;SDS011;53960;51.826;5.850;2022-09-03T15:32:04;5.78;;;1.80;;
67053;SDS011;53960;51.826;5.850;2022-09-03T15:37:24;6.43;;;1.83;;
67053;SDS011;53960;51.826;5.850;2022-09-03T15:40:02;6.38;;;1.90;;
67053;SDS011;53960;51.826;5.850;2022-09-03T15:42:30;7.30;;;2.35;;
67053;SDS011;53960;51.826;5.850;2022-09-03T15:45:01;9.40;;;3.40;;
67053;SDS011;53960;51.826;5.850;2022-09-03T15:58:33;9.18;;;3.63;;
67053;SDS011;53960;51.826;5.850;2022-09-03T16:01:06;12.60;;;8.32;;
67053;SDS011;53960;51.826;5.850;2022-09-03T16:06:22;8.30;;;2.55;;
67053;SDS011;53960;51.826;5.850;2022-09-03T16:09:04;7.03;;;2.00;;
67053;SDS011;53960;51.826;5.850;2022-09-03T16:11:50;6.72;;;2.20;;
67053;SDS011;53960;51.826;5.850;2022-09-03T16:14:31;7.10;;;2.03;;
67053;SDS011;53960;51.826;5.850;2022-09-03T16:17:14;8.75;;;2.38;;
67053;SDS011;53960;51.826;5.850;2022-09-03T16:20:33;6.50;;;2.28;;
67053;SDS011;53960;51.826;5.850;2022-09-03T16:22:56;8.27;;;2.37;;
67053;SDS011;53960;51.826;5.850;2022-09-03T16:25:34;10.85;;;6.13;;
67053;SDS011;53960;51.826;5.850;2022-09-03T16:28:23;8.35;;;2.30;;
67053;SDS011;53960;51.826;5.850;2022-09-03T16:36:36;6.83;;;2.23;;
67053;SDS011;53960;51.826;5.850;2022-09-03T16:39:12;6.30;;;2.28;;
67053;SDS011;53960;51.826;5.850;2022-09-03T16:41:47;6.30;;;1.95;;
67053;SDS011;53960;51.826;5.850;2022-09-03T16:44:43;6.63;;;2.30;;
67053;SDS011;53960;51.826;5.850;2022-09-03T16:47:30;6.40;;;2.40;;
67053;SDS011;53960;51.826;5.850;2022-09-03T16:53:14;7.03;;;2.40;;
67053;SDS011;53960;51.826;5.850;2022-09-03T17:01:44;7.50;;;2.50;;
67053;SDS011;53960;51.826;5.850;2022-09-03T17:10:19;9.02;;;2.47;;
67053;SDS011;53960;51.826;5.850;2022-09-03T17:21:17;8.05;;;2.25;;
67053;SDS011;53960;51.826;5.850;2022-09-03T17:33:15;6.83;;;2.57;;
67053;SDS011;53960;51.826;5.850;2022-09-03T17:43:24;7.15;;;2.60;;
67053;SDS011;53960;51.826;5.850;2022-09-03T17:48:58;9.23;;;2.70;;
67053;SDS011;53960;51.826;5.850;2022-09-03T17:51:45;8.20;;;2.70;;
67053;SDS011;53960;51.826;5.850;2022-09-03T17:54:16;7.45;;;2.40;;
67053;SDS011;53960;51.826;5.850;2022-09-03T17:57:12;8.73;;;2.40;;
67053;SDS011;53960;51.826;5.850;2022-09-03T18:05:25;6.18;;;2.42;;
67053;SDS011;53960;51.826;5.850;2022-09-03T18:11:08;8.02;;;2.85;;
67053;SDS011;53960;51.826;5.850;2022-09-03T18:13:44;8.48;;;3.28;;
67053;SDS011;53960;51.826;5.850;2022-09-03T18:16:20;7.63;;;2.83;;
67053;SDS011;53960;51.826;5.850;2022-09-03T18:18:51;7.82;;;2.83;;
67053;SDS011;53960;51.826;5.850;2022-09-03T18:21:23;8.05;;;3.08;;
67053;SDS011;53960;51.826;5.850;2022-09-03T18:24:22;8.13;;;3.00;;
67053;SDS011;53960;51.826;5.850;2022-09-03T18:30:21;7.23;;;2.73;;
67053;SDS011;53960;51.826;5.850;2022-09-03T18:33:05;9.65;;;2.83;;
67053;SDS011;53960;51.826;5.850;2022-09-03T18:35:49;6.55;;;2.83;;
67053;SDS011;53960;51.826;5.850;2022-09-03T18:38:34;7.30;;;2.60;;
67053;SDS011;53960;51.826;5.850;2022-09-03T18:41:39;7.05;;;2.55;;
67053;SDS011;53960;51.826;5.850;2022-09-03T18:47:36;8.25;;;2.80;;
67053;SDS011;53960;51.826;5.850;2022-09-03T18:56:31;6.75;;;2.88;;
67053;SDS011;53960;51.826;5.850;2022-09-03T19:02:46;9.00;;;3.08;;
67053;SDS011;53960;51.826;5.850;2022-09-03T19:09:15;10.75;;;3.35;;
67053;SDS011;53960;51.826;5.850;2022-09-03T19:15:28;7.20;;;2.97;;
67053;SDS011;53960;51.826;5.850;2022-09-03T19:18:23;8.30;;;2.80;;
67053;SDS011;53960;51.826;5.850;2022-09-03T19:24:08;9.70;;;3.05;;
67053;SDS011;53960;51.826;5.850;2022-09-03T19:31:00;7.10;;;3.07;;
67053;SDS011;53960;51.826;5.850;2022-09-03T19:51:29;8.95;;;3.25;;
67053;SDS011;53960;51.826;5.850;2022-09-03T19:54:19;7.88;;;3.53;;
67053;SDS011;53960;51.826;5.850;2022-09-03T19:57:06;7.90;;;3.45;;
67053;SDS011;53960;51.826;5.850;2022-09-03T19:59:54;8.93;;;3.57;;
67053;SDS011;53960;51.826;5.850;2022-09-03T20:02:39;9.27;;;3.78;;
67053;SDS011;53960;51.826;5.850;2022-09-03T20:05:24;9.80;;;3.95;;
67053;SDS011;53960;51.826;5.850;2022-09-03T20:08:08;8.18;;;3.70;;
67053;SDS011;53960;51.826;5.850;2022-09-03T20:10:58;9.10;;;4.30;;
67053;SDS011;53960;51.826;5.850;2022-09-03T20:13:25;8.43;;;4.07;;
67053;SDS011;53960;51.826;5.850;2022-09-03T20:16:06;9.15;;;4.15;;
67053;SDS011;53960;51.826;5.850;2022-09-03T20:21:33;8.95;;;4.00;;
67053;SDS011;53960;51.826;5.850;2022-09-03T20:29:41;8.27;;;4.22;;